createdAt,value
2022-12-03T00:00:12.162Z,101637.97
2022-12-03T00:02:43.249Z,101632.31
2022-12-03T00:05:12.234Z,101635.91
2022-12-03T00:07:40.962Z,101633.28
2022-12-03T00:10:10.826Z,101632.03
2022-12-03T00:12:39.669Z,101632.75
2022-12-03T00:15:09.799Z,101618.09
2022-12-03T00:17:38.485Z,101628.75
2022-12-03T00:20:10.305Z,101625.94
2022-12-03T00:22:38.945Z,101623.78
2022-12-03T00:25:08.763Z,101621.03
2022-12-03T00:27:37.343Z,101630.31
2022-12-03T00:30:08.779Z,101616.72
2022-12-03T00:32:37.441Z,101625.56
2022-12-03T00:35:08.050Z,101628.63
2022-12-03T00:37:36.658Z,101623.94
2022-12-03T00:40:06.644Z,101620.69
2022-12-03T00:42:35.247Z,101625.06
2022-12-03T00:45:04.040Z,101622.66
2022-12-03T00:47:32.725Z,101626.09
2022-12-03T00:50:01.300Z,101619.03
2022-12-03T00:52:31.330Z,101626.09
2022-12-03T00:54:59.938Z,101616.44
2022-12-03T00:57:28.484Z,101619.25
2022-12-03T00:59:57.136Z,101624.53
2022-12-03T01:02:25.680Z,101619.69
2022-12-03T01:04:54.456Z,101623.97
2022-12-03T01:07:23.528Z,101623.09
2022-12-03T01:09:53.674Z,101624.81
2022-12-03T01:12:22.298Z,101617.22
2022-12-03T01:14:51.938Z,101620.06
2022-12-03T01:17:20.779Z,101544.78
2022-12-03T01:19:52.356Z,101629.63
2022-12-03T01:22:20.950Z,101625.34
2022-12-03T01:24:49.473Z,101624.25
2022-12-03T01:27:19.415Z,101622.06
2022-12-03T01:29:47.966Z,101624.16
2022-12-03T01:32:19.563Z,101617.78
2022-12-03T01:34:50.217Z,101612.56
2022-12-03T01:37:20.325Z,101618.59
2022-12-03T01:39:48.975Z,101615.84
2022-12-03T01:42:22.215Z,101613.09
2022-12-03T01:44:54.123Z,101614.19
2022-12-03T01:47:31.681Z,101613.31
2022-12-03T01:50:04.511Z,101613.09
2022-12-03T01:52:38.081Z,101605.06
2022-12-03T01:55:12.486Z,101607.97
2022-12-03T01:57:46.104Z,101601.66
2022-12-03T02:00:16.904Z,101605.88
2022-12-03T02:02:46.686Z,101594.44
2022-12-03T02:05:19.873Z,101598.97
2022-12-03T02:07:48.908Z,101597.41
2022-12-03T02:10:20.076Z,101596.44
2022-12-03T02:12:55.337Z,101593.72
2022-12-03T02:15:24.262Z,101590.34
2022-12-03T02:17:53.299Z,101590.59
2022-12-03T02:20:22.344Z,101595.78
2022-12-03T02:23:00.938Z,101596.69
2022-12-03T02:25:33.250Z,101596.97
2022-12-03T02:28:03.207Z,101589.31
2022-12-03T02:30:33.540Z,101593.31
2022-12-03T02:33:03.508Z,101594.88
2022-12-03T02:35:35.292Z,101592.13
2022-12-03T02:38:15.274Z,101588.28
2022-12-03T02:40:46.970Z,101596.00
2022-12-03T02:43:16.754Z,101599.69
2022-12-03T02:45:47.872Z,101591.19
2022-12-03T02:48:20.598Z,101596.97
2022-12-03T02:50:54.548Z,101593.47
2022-12-03T02:53:28.767Z,101594.13
2022-12-03T02:56:00.871Z,101593.03
2022-12-03T02:58:32.235Z,101590.63
2022-12-03T03:01:03.192Z,101582.91
2022-12-03T03:03:33.577Z,101590.00
2022-12-03T03:06:03.819Z,101592.41
2022-12-03T03:08:32.988Z,101591.38
2022-12-03T03:11:03.992Z,101592.16
2022-12-03T03:13:34.368Z,101597.03
2022-12-03T03:16:04.791Z,101588.03
2022-12-03T03:18:33.716Z,101591.25
2022-12-03T03:21:02.595Z,101588.78
2022-12-03T03:23:31.210Z,101599.53
2022-12-03T03:26:05.425Z,101583.53
2022-12-03T03:28:36.999Z,101588.34
2022-12-03T03:31:08.659Z,101585.56
2022-12-03T03:33:38.622Z,101586.41
2022-12-03T03:36:08.163Z,101581.88
2022-12-03T03:38:38.052Z,101577.97
2022-12-03T03:41:10.445Z,101583.72
2022-12-03T03:43:43.384Z,101589.25
2022-12-03T03:46:13.393Z,101580.00
2022-12-03T03:48:44.162Z,101589.81
2022-12-03T03:51:13.579Z,101585.25
2022-12-03T03:53:45.255Z,101589.34
2022-12-03T03:56:17.107Z,101582.66
2022-12-03T03:58:45.810Z,101589.88
2022-12-03T04:01:15.748Z,101593.09
2022-12-03T04:03:44.428Z,101592.34
2022-12-03T04:06:13.160Z,101582.84
2022-12-03T04:08:41.862Z,101582.91
2022-12-03T04:11:27.778Z,101581.34
2022-12-03T04:13:57.805Z,101576.25
2022-12-03T04:16:26.524Z,101578.06
2022-12-03T04:18:55.215Z,101577.50
2022-12-03T04:21:56.946Z,101573.47
2022-12-03T04:24:25.840Z,101571.63
2022-12-03T04:27:13.125Z,101564.50
2022-12-03T04:29:43.101Z,101575.94
2022-12-03T04:32:29.100Z,101570.59
2022-12-03T04:35:14.980Z,101570.50
2022-12-03T04:37:43.697Z,101566.88
2022-12-03T04:40:29.312Z,101552.88
2022-12-03T04:42:57.899Z,101564.59
2022-12-03T04:45:27.819Z,101564.47
2022-12-03T04:47:56.534Z,101566.03
2022-12-03T04:50:25.126Z,101559.06
2022-12-03T04:52:53.717Z,101563.66
2022-12-03T04:55:22.296Z,101555.16
2022-12-03T04:57:50.883Z,101561.69
2022-12-03T05:00:20.015Z,101560.69
2022-12-03T05:02:50.098Z,101557.19
2022-12-03T05:05:19.105Z,101554.59
2022-12-03T05:07:47.711Z,101553.78
2022-12-03T05:10:16.424Z,101550.97
2022-12-03T05:12:44.979Z,101544.88
2022-12-03T05:15:13.742Z,101546.34
2022-12-03T05:17:42.344Z,101544.50
2022-12-03T05:20:31.466Z,101546.66
2022-12-03T05:23:00.142Z,101543.94
2022-12-03T05:25:28.693Z,101541.22
2022-12-03T05:27:57.316Z,101548.88
2022-12-03T05:30:26.016Z,101461.56
2022-12-03T05:32:54.717Z,101534.50
2022-12-03T05:35:24.813Z,101537.03
2022-12-03T05:37:54.122Z,101528.72
2022-12-03T05:40:22.932Z,101531.59
2022-12-03T05:42:57.210Z,101534.19
2022-12-03T05:45:27.544Z,101529.91
2022-12-03T05:47:57.420Z,101532.09
2022-12-03T05:50:29.947Z,101522.34
2022-12-03T05:52:59.394Z,101525.75
2022-12-03T05:55:28.464Z,101521.72
2022-12-03T05:57:57.136Z,101525.22
2022-12-03T06:00:27.736Z,101520.13
2022-12-03T06:02:57.307Z,101518.97
2022-12-03T06:05:27.806Z,101524.34
2022-12-03T06:07:56.568Z,101521.97
2022-12-03T06:10:26.445Z,101521.22
2022-12-03T06:12:55.489Z,101520.19
2022-12-03T06:15:24.478Z,101522.41
2022-12-03T06:17:53.114Z,101527.66
2022-12-03T06:20:22.529Z,101530.56
2022-12-03T06:22:52.479Z,101535.00
2022-12-03T06:25:21.076Z,101532.53
2022-12-03T06:27:49.674Z,101533.34
2022-12-03T06:30:18.455Z,101537.34
2022-12-03T06:32:47.080Z,101531.53
2022-12-03T06:35:15.813Z,101540.97
2022-12-03T06:37:44.391Z,101546.47
2022-12-03T06:40:16.821Z,101538.66
2022-12-03T06:42:45.692Z,101542.38
2022-12-03T06:45:14.524Z,101534.38
2022-12-03T06:47:43.254Z,101540.69
2022-12-03T06:50:12.252Z,101538.16
2022-12-03T06:52:40.873Z,101543.88
2022-12-03T06:55:10.481Z,101543.41
2022-12-03T06:57:40.427Z,101538.97
2022-12-03T07:00:10.373Z,101539.63
2022-12-03T07:02:39.200Z,101543.88
2022-12-03T07:05:08.596Z,101535.91
2022-12-03T07:07:37.531Z,101537.97
2022-12-03T07:10:07.293Z,101540.16
2022-12-03T07:12:36.043Z,101530.38
2022-12-03T07:15:07.140Z,101531.75
2022-12-03T07:17:35.753Z,101538.06
2022-12-03T07:20:05.602Z,101536.69
2022-12-03T07:22:34.502Z,101541.06
2022-12-03T07:25:03.096Z,101530.13
2022-12-03T07:27:31.737Z,101530.13
2022-12-03T07:30:00.375Z,101534.09
2022-12-03T07:32:30.340Z,101529.91
2022-12-03T07:34:58.932Z,101531.03
2022-12-03T07:37:27.752Z,101528.44
2022-12-03T07:39:56.476Z,101534.59
2022-12-03T07:42:25.395Z,101527.44
2022-12-03T07:44:54.257Z,101525.59
2022-12-03T07:47:23.076Z,101527.81
2022-12-03T07:49:53.109Z,101531.25
2022-12-03T07:52:23.128Z,101533.84
2022-12-03T07:54:52.051Z,101526.38
2022-12-03T07:57:20.837Z,101530.50
2022-12-03T07:59:49.444Z,101520.69
2022-12-03T08:02:21.242Z,101523.16
2022-12-03T08:04:52.244Z,101524.34
2022-12-03T08:07:21.265Z,101519.88
2022-12-03T08:09:50.650Z,101523.72
2022-12-03T08:12:23.870Z,101521.88
2022-12-03T08:14:53.066Z,101517.69
2022-12-03T08:17:21.905Z,101526.91
2022-12-03T08:19:54.296Z,101521.22
2022-12-03T08:22:23.321Z,101521.81
2022-12-03T08:24:52.255Z,101517.25
2022-12-03T08:27:21.437Z,101525.63
2022-12-03T08:29:49.985Z,101525.41
2022-12-03T08:32:18.647Z,101517.72
2022-12-03T08:34:47.283Z,101512.19
2022-12-03T08:37:20.160Z,101512.00
2022-12-03T08:39:51.007Z,101516.50
2022-12-03T08:42:41.356Z,101514.38
2022-12-03T08:45:41.087Z,101517.63
2022-12-03T08:48:32.783Z,101516.84
2022-12-03T08:51:07.357Z,101515.22
2022-12-03T08:53:39.790Z,101523.63
2022-12-03T08:56:20.739Z,101512.06
2022-12-03T08:58:54.130Z,101475.44
2022-12-03T09:01:33.281Z,101511.53
2022-12-03T09:04:20.985Z,101510.22
2022-12-03T09:06:50.005Z,101514.47
2022-12-03T09:09:20.633Z,101504.59
2022-12-03T09:11:49.694Z,101503.78
2022-12-03T09:14:33.671Z,101509.53
2022-12-03T09:17:02.578Z,101496.13
2022-12-03T09:19:31.944Z,101498.25
2022-12-03T09:22:00.723Z,101497.97
2022-12-03T09:24:30.975Z,101494.75
2022-12-03T09:26:59.600Z,101496.63
2022-12-03T09:29:28.503Z,101493.31
2022-12-03T09:31:57.414Z,101493.78
2022-12-03T09:34:26.275Z,101490.91
2022-12-03T09:36:55.124Z,101488.09
2022-12-03T09:39:23.935Z,101489.97
2022-12-03T09:41:54.311Z,101483.56
2022-12-03T09:44:23.284Z,101485.06
2022-12-03T09:46:54.950Z,101481.69
2022-12-03T09:49:23.978Z,101490.09
2022-12-03T09:51:53.419Z,101484.81
2022-12-03T09:54:25.524Z,101495.25
2022-12-03T09:56:57.783Z,101489.63
2022-12-03T09:59:31.455Z,101490.53
2022-12-03T10:02:00.584Z,101497.66
2022-12-03T10:04:29.697Z,101482.41
2022-12-03T10:07:00.259Z,101484.25
2022-12-03T10:09:31.333Z,101442.97
2022-12-03T10:12:02.117Z,101482.53
2022-12-03T10:14:31.092Z,101482.03
2022-12-03T10:17:00.493Z,101482.41
2022-12-03T10:19:32.950Z,101487.06
2022-12-03T10:22:01.563Z,101486.56
2022-12-03T10:24:31.515Z,101481.72
2022-12-03T10:27:03.121Z,101480.16
2022-12-03T10:29:34.649Z,101476.38
2022-12-03T10:32:07.761Z,101442.06
2022-12-03T10:34:38.226Z,101470.34
2022-12-03T10:37:17.090Z,101411.94
2022-12-03T10:39:57.782Z,101458.25
2022-12-03T10:42:29.444Z,101457.41
2022-12-03T10:45:25.010Z,101451.31
2022-12-03T10:48:12.207Z,101448.59
2022-12-03T10:50:49.262Z,101451.38
2022-12-03T10:53:18.946Z,101449.09
2022-12-03T10:55:48.897Z,101443.09
2022-12-03T10:58:23.700Z,101441.94
2022-12-03T11:00:53.953Z,101441.38
2022-12-03T11:03:24.776Z,101450.44
2022-12-03T11:05:55.045Z,101435.69
2022-12-03T11:08:25.578Z,101440.16
2022-12-03T11:11:01.802Z,101441.97
2022-12-03T11:13:48.689Z,101437.19
2022-12-03T11:17:07.840Z,101443.91
2022-12-03T11:19:49.506Z,101436.63
2022-12-03T11:22:26.437Z,101436.22
2022-12-03T11:25:28.483Z,101422.53
2022-12-03T11:28:29.626Z,101420.88
2022-12-03T11:31:02.463Z,101425.31
2022-12-03T11:33:32.670Z,101423.66
2022-12-03T11:36:17.630Z,101420.41
2022-12-03T11:38:56.108Z,101425.38
2022-12-03T11:41:35.900Z,101425.06
2022-12-03T11:44:32.986Z,101422.38
2022-12-03T11:47:17.310Z,101421.72
2022-12-03T11:49:49.975Z,101420.72
2022-12-03T11:52:28.854Z,101421.28
2022-12-03T11:55:05.407Z,101418.09
2022-12-03T11:57:39.714Z,101422.22
2022-12-03T12:00:21.023Z,101412.06
2022-12-03T12:02:53.575Z,101408.06
2022-12-03T12:05:27.613Z,101408.84
2022-12-03T12:07:57.852Z,101409.34
2022-12-03T12:10:46.161Z,101406.16
2022-12-03T12:13:58.300Z,101404.00
2022-12-03T12:16:55.480Z,101405.22
2022-12-03T12:19:34.853Z,101404.91
2022-12-03T12:22:33.291Z,101396.47
2022-12-03T12:25:04.123Z,101395.31
2022-12-03T12:27:45.397Z,101397.25
2022-12-03T12:30:17.755Z,101396.31
2022-12-03T12:32:50.041Z,101387.38
2022-12-03T12:35:23.151Z,101390.53
2022-12-03T12:38:00.172Z,101383.09
2022-12-03T12:40:32.543Z,101383.66
2022-12-03T12:43:11.888Z,101382.28
2022-12-03T12:45:44.639Z,101378.63
2022-12-03T12:48:22.331Z,101382.56
2022-12-03T12:50:58.530Z,101373.22
2022-12-03T12:53:31.001Z,101381.44
2022-12-03T12:56:02.098Z,101374.56
2022-12-03T12:58:34.600Z,101375.63
2022-12-03T13:01:09.570Z,101369.91
2022-12-03T13:03:41.443Z,101373.91
2022-12-03T13:06:48.684Z,101366.00
2022-12-03T13:09:22.251Z,101372.75
2022-12-03T13:11:57.192Z,101371.09
2022-12-03T13:14:37.439Z,101376.59
2022-12-03T13:17:17.081Z,101380.25
2022-12-03T13:19:48.621Z,101368.78
2022-12-03T13:22:22.484Z,101362.41
2022-12-03T13:24:53.022Z,101364.09
2022-12-03T13:27:29.507Z,101363.41
2022-12-03T13:30:02.707Z,101361.03
2022-12-03T13:32:35.001Z,101363.22
2022-12-03T13:35:07.036Z,101359.97
2022-12-03T13:37:37.946Z,101357.47
2022-12-03T13:40:20.380Z,101350.56
2022-12-03T13:42:49.161Z,101349.44
2022-12-03T13:45:35.597Z,101352.91
2022-12-03T13:48:14.894Z,101353.53
2022-12-03T13:50:46.082Z,101350.69
2022-12-03T13:53:24.507Z,101353.41
2022-12-03T13:56:14.700Z,101343.53
2022-12-03T13:58:43.433Z,101339.97
2022-12-03T14:01:12.087Z,101339.09
2022-12-03T14:03:40.892Z,101349.91
2022-12-03T14:06:09.567Z,101340.03
2022-12-03T14:08:39.612Z,101339.44
2022-12-03T14:11:08.428Z,101339.84
2022-12-03T14:13:37.260Z,101344.16
2022-12-03T14:16:06.445Z,101346.88
2022-12-03T14:18:36.090Z,101346.44
2022-12-03T14:21:04.867Z,101346.22
2022-12-03T14:23:33.426Z,101342.06
2022-12-03T14:26:03.386Z,101343.06
2022-12-03T14:28:32.028Z,101346.50
2022-12-03T14:31:00.550Z,101342.06
2022-12-03T14:33:30.839Z,101336.75
2022-12-03T14:35:59.484Z,101336.97
2022-12-03T14:38:28.186Z,101352.00
2022-12-03T14:40:56.869Z,101347.72
2022-12-03T14:43:26.832Z,101345.88
2022-12-03T14:45:55.577Z,101346.31
2022-12-03T14:48:24.206Z,101343.34
2022-12-03T14:50:52.834Z,101344.22
2022-12-03T14:53:25.707Z,101336.13
2022-12-03T14:55:59.109Z,101339.63
2022-12-03T14:58:29.148Z,101346.94
2022-12-03T15:00:57.804Z,101348.53
2022-12-03T15:03:26.547Z,101346.84
2022-12-03T15:05:55.139Z,101340.66
2022-12-03T15:08:24.164Z,101347.91
2022-12-03T15:10:52.955Z,101356.44
2022-12-03T15:13:21.789Z,101352.84
2022-12-03T15:15:52.712Z,101354.56
2022-12-03T15:18:21.700Z,101358.31
2022-12-03T15:20:50.793Z,101355.75
2022-12-03T15:23:19.989Z,101353.75
2022-12-03T15:25:48.613Z,101353.75
2022-12-03T15:28:18.542Z,101357.19
2022-12-03T15:30:47.528Z,101353.69
2022-12-03T15:33:17.997Z,101358.84
2022-12-03T15:35:47.378Z,101353.50
2022-12-03T15:38:16.904Z,101352.63
2022-12-03T15:40:45.691Z,101349.16
2022-12-03T15:43:14.902Z,101348.63
2022-12-03T15:45:43.710Z,101347.59
2022-12-03T15:48:13.543Z,101352.56
2022-12-03T15:50:43.567Z,101362.09
2022-12-03T15:53:12.997Z,101350.16
2022-12-03T15:55:41.792Z,101357.41
2022-12-03T15:58:10.609Z,101354.03
2022-12-03T16:00:40.028Z,101353.00
2022-12-03T16:03:08.698Z,101348.38
2022-12-03T16:05:37.747Z,101354.41
2022-12-03T16:08:08.484Z,101351.09
2022-12-03T16:10:37.179Z,101356.38
2022-12-03T16:13:06.298Z,101353.09
2022-12-03T16:15:35.988Z,101368.84
2022-12-03T16:18:04.875Z,101369.69
2022-12-03T16:20:33.785Z,101359.84
2022-12-03T16:23:02.452Z,101359.91
2022-12-03T16:25:32.803Z,101361.94
2022-12-03T16:28:01.737Z,101356.06
2022-12-03T16:30:30.299Z,101358.59
2022-12-03T16:32:59.293Z,101356.84
2022-12-03T16:35:28.176Z,101355.84
2022-12-03T16:37:57.381Z,101354.88
2022-12-03T16:40:26.406Z,101357.56
2022-12-03T16:42:56.560Z,101356.72
2022-12-03T16:45:51.260Z,101352.34
2022-12-03T16:48:20.748Z,101357.59
2022-12-03T16:50:49.997Z,101356.78
2022-12-03T16:53:19.077Z,101353.28
2022-12-03T16:55:48.085Z,101359.31
2022-12-03T16:58:21.349Z,101354.34
2022-12-03T17:00:50.890Z,101352.41
2022-12-03T17:03:19.676Z,101350.03
2022-12-03T17:05:50.137Z,101350.03
2022-12-03T17:08:19.501Z,101346.22
2022-12-03T17:10:48.193Z,101345.59
2022-12-03T17:13:18.477Z,101346.59
2022-12-03T17:15:47.546Z,101345.06
2022-12-03T17:18:16.206Z,101346.69
2022-12-03T17:20:45.612Z,101340.91
2022-12-03T17:23:14.353Z,101345.06
2022-12-03T17:25:43.099Z,101352.16
2022-12-03T17:28:12.253Z,101348.84
2022-12-03T17:30:42.695Z,101355.69
2022-12-03T17:33:11.900Z,101322.38
2022-12-03T17:35:41.375Z,101334.75
2022-12-03T17:38:11.244Z,101330.38
2022-12-03T17:40:40.334Z,101329.72
2022-12-03T17:43:09.266Z,101327.75
2022-12-03T17:45:38.572Z,101335.53
2022-12-03T17:48:11.213Z,101347.44
2022-12-03T17:50:40.667Z,101338.88
2022-12-03T17:53:10.741Z,101344.22
2022-12-03T17:55:44.618Z,101336.19
2022-12-03T17:58:14.440Z,101330.09
2022-12-03T18:00:43.279Z,101336.09
2022-12-03T18:03:13.280Z,101329.91
2022-12-03T18:05:41.983Z,101325.53
2022-12-03T18:08:10.702Z,101330.84
2022-12-03T18:10:39.413Z,101337.00
2022-12-03T18:13:08.205Z,101328.66
2022-12-03T18:15:37.013Z,101332.31
2022-12-03T18:18:05.830Z,101329.16
2022-12-03T18:20:36.189Z,101321.34
2022-12-03T18:23:05.337Z,101320.25
2022-12-03T18:25:34.010Z,101327.25
2022-12-03T18:28:02.716Z,101320.22
2022-12-03T18:33:15.675Z,101318.41
2022-12-03T18:35:46.165Z,101325.75
2022-12-03T18:38:18.302Z,101294.28
2022-12-03T18:40:47.941Z,101317.00
2022-12-03T18:43:17.560Z,101306.53
2022-12-03T18:45:46.203Z,101314.97
2022-12-03T18:48:15.916Z,101314.00
2022-12-03T18:50:46.873Z,101309.06
2022-12-03T18:53:16.915Z,101318.72
2022-12-03T18:55:47.338Z,101308.97
2022-12-03T18:58:16.211Z,101315.88
2022-12-03T19:00:44.887Z,101312.56
2022-12-03T19:03:13.667Z,101313.56
2022-12-03T19:05:42.496Z,101325.88
2022-12-03T19:08:14.940Z,101326.81
2022-12-03T19:10:44.212Z,101329.53
2022-12-03T19:13:13.068Z,101336.06
2022-12-03T19:15:41.733Z,101334.47
2022-12-03T19:18:10.376Z,101337.16
2022-12-03T19:20:42.148Z,101332.97
2022-12-03T19:23:12.304Z,101326.00
2022-12-03T19:25:40.954Z,101322.38
2022-12-03T19:28:09.905Z,101327.19
2022-12-03T19:30:40.374Z,101322.28
2022-12-03T19:33:09.016Z,101324.31
2022-12-03T19:35:40.934Z,101334.31
2022-12-03T19:38:11.182Z,101324.56
2022-12-03T19:40:40.683Z,101321.72
2022-12-03T19:43:09.368Z,101320.19
2022-12-03T19:45:38.249Z,101320.06
2022-12-03T19:48:07.112Z,101326.03
2022-12-03T19:50:35.770Z,101327.03
2022-12-03T19:53:04.414Z,101335.97
2022-12-03T19:55:37.090Z,101329.72
2022-12-03T19:58:05.731Z,101338.88
2022-12-03T20:00:36.309Z,101325.94
2022-12-03T20:03:05.369Z,101326.22
2022-12-03T20:05:38.147Z,101331.44
2022-12-03T20:08:08.911Z,101334.94
2022-12-03T20:10:39.218Z,101335.97
2022-12-03T20:13:07.900Z,101343.44
2022-12-03T20:15:38.736Z,101333.31
2022-12-03T20:18:07.881Z,101333.97
2022-12-03T20:20:38.563Z,101332.91
2022-12-03T20:23:07.813Z,101336.34
2022-12-03T20:25:39.401Z,101332.03
2022-12-03T20:28:08.131Z,101332.16
2022-12-03T20:30:36.718Z,101339.97
2022-12-03T20:33:05.575Z,101333.81
2022-12-03T20:35:35.207Z,101324.31
2022-12-03T20:38:03.870Z,101328.59
2022-12-03T20:40:36.412Z,101327.81
2022-12-03T20:43:06.607Z,101329.81
2022-12-03T20:45:35.390Z,101330.81
2022-12-03T20:48:04.249Z,101319.16
2022-12-03T20:50:33.454Z,101322.06
2022-12-03T20:53:23.059Z,101325.22
2022-12-03T20:55:56.879Z,101321.59
2022-12-03T20:58:27.289Z,101314.50
2022-12-03T21:00:56.211Z,101314.75
2022-12-03T21:03:25.040Z,101308.84
2022-12-03T21:06:01.534Z,101317.28
2022-12-03T21:08:40.917Z,101317.50
2022-12-03T21:11:11.993Z,101308.03
2022-12-03T21:13:45.109Z,101307.88
2022-12-03T21:16:18.907Z,101318.19
2022-12-03T21:18:48.583Z,101304.19
2022-12-03T21:21:18.784Z,101272.56
2022-12-03T21:23:48.250Z,101301.78
2022-12-03T21:26:20.333Z,101261.03
2022-12-03T21:28:52.857Z,101297.28
2022-12-03T21:31:25.204Z,101293.03
2022-12-03T21:33:55.005Z,101287.81
2022-12-03T21:36:25.060Z,101277.44
2022-12-03T21:38:54.837Z,101283.41
2022-12-03T21:41:23.420Z,101298.16
2022-12-03T21:43:54.333Z,101296.28
2022-12-03T21:47:09.561Z,101285.03
2022-12-03T21:49:12.160Z,101282.59
2022-12-03T21:51:41.158Z,101280.94
2022-12-03T21:54:10.483Z,101282.75
2022-12-03T21:56:39.240Z,101275.91
2022-12-03T21:59:09.894Z,101269.16
2022-12-03T22:01:41.698Z,101271.91
2022-12-03T22:04:14.258Z,101264.91
2022-12-03T22:06:44.267Z,101262.53
2022-12-03T22:09:12.903Z,101266.25
2022-12-03T22:11:41.877Z,101263.91
2022-12-03T22:14:12.335Z,101264.97
2022-12-03T22:16:41.005Z,101265.81
2022-12-03T22:19:09.692Z,101274.72
2022-12-03T22:21:38.594Z,101272.28
2022-12-03T22:24:07.937Z,101272.34
2022-12-03T22:26:36.588Z,101276.00
2022-12-03T22:29:06.189Z,101282.22
2022-12-03T22:31:36.276Z,101285.31
2022-12-03T22:34:05.707Z,101272.91
2022-12-03T22:36:34.390Z,101276.56
2022-12-03T22:39:03.027Z,101264.41
2022-12-03T22:41:31.891Z,101268.06
2022-12-03T22:44:00.507Z,101266.28
2022-12-03T22:46:29.141Z,101272.56
2022-12-03T22:49:03.484Z,101258.66
2022-12-03T22:51:35.964Z,101272.34
2022-12-03T22:54:05.561Z,101270.25
2022-12-03T22:56:34.690Z,101261.50
2022-12-03T22:59:03.284Z,101261.38
2022-12-03T23:01:34.092Z,101258.28
2022-12-03T23:04:05.184Z,101257.66
2022-12-03T23:06:35.355Z,101256.47
2022-12-03T23:09:06.874Z,101254.84
2022-12-03T23:11:35.805Z,101255.06
2022-12-03T23:14:04.686Z,101249.13
2022-12-03T23:16:34.606Z,101246.41
2022-12-03T23:19:04.765Z,101233.47
2022-12-03T23:21:35.432Z,101235.09
2022-12-03T23:24:05.999Z,101235.97
2022-12-03T23:26:36.990Z,101234.41
2022-12-03T23:29:08.581Z,101231.13
2022-12-03T23:31:37.553Z,101230.31
2022-12-03T23:34:07.602Z,101224.22
2022-12-03T23:36:36.350Z,101223.47
2022-12-03T23:39:05.122Z,101220.03
2022-12-03T23:41:33.744Z,101229.47
2022-12-03T23:44:02.382Z,101221.75
2022-12-03T23:46:31.096Z,101229.47
2022-12-03T23:49:00.601Z,101218.63
2022-12-03T23:51:30.656Z,101219.56
2022-12-03T23:53:59.270Z,101218.00
2022-12-03T23:56:30.234Z,101213.72
2022-12-03T23:58:59.695Z,101210.19
